This is the latest recevied weather packets stored in our database for station/object SQ9NFI-4. If no packets are shown the sender has not sent any weather packets the latest 10 day(s).
| Time | Temp. | Humidity | Pressure | Rain* | Wind** | Luminosity | Snow |
|---|---|---|---|---|---|---|---|
| 1777468516 | 9.44° C | 31% | 1026.8 hPa | 0 mm | - | 151 W/m² | - |
| 1777468216 | 11.11° C | 29% | 1026.8 hPa | 0 mm | - | 196 W/m² | - |
| 1777467916 | 10° C | 28% | 1026.8 hPa | 0 mm | - | 592 W/m² | - |
| 1777467615 | 9.44° C | 28% | 1026.4 hPa | 0 mm | - | 120 W/m² | - |
| 1777467316 | 10° C | 30% | 1026.4 hPa | 0 mm | - | 159 W/m² | - |
| 1777467016 | 11.11° C | 29% | 1026.4 hPa | 0 mm | - | 674 W/m² | - |
| 1777466716 | 10° C | 27% | 1026.4 hPa | 0 mm | - | 654 W/m² | - |
| 1777466416 | 10.56° C | 30% | 1026.4 hPa | 0 mm | - | 651 W/m² | - |
| 1777466116 | 10° C | 31% | 1026.4 hPa | 0 mm | - | 560 W/m² | - |
| 1777465816 | 10.56° C | 31% | 1026.4 hPa | 0 mm | - | 691 W/m² | - |
| 1777465516 | 9.44° C | 29% | 1026.4 hPa | 0 mm | - | 285 W/m² | - |
| 1777465216 | 11.11° C | 27% | 1026.4 hPa | 0 mm | - | 725 W/m² | - |
| 1777464915 | 10.56° C | 28% | 1026.4 hPa | 0 mm | - | 680 W/m² | - |
| 1777464616 | 9.44° C | 29% | 1026.4 hPa | 0 mm | - | 663 W/m² | - |
| 1777464316 | 10.56° C | 26% | 1026.4 hPa | 0 mm | - | 296 W/m² | - |
| 1777464016 | 10.56° C | 27% | 1026.4 hPa | 0 mm | - | 711 W/m² | - |
| 1777463716 | 9.44° C | 26% | 1026.4 hPa | 0 mm | - | 143 W/m² | - |
| 1777463415 | 9.44° C | 25% | 1026.4 hPa | 0 mm | - | 138 W/m² | - |
| 1777463115 | 10.56° C | 26% | 1026.4 hPa | 0 mm | - | 671 W/m² | - |
| 1777462816 | 10.56° C | 25% | 1026.4 hPa | 0 mm | - | 665 W/m² | - |
| 1777462515 | 10.56° C | 25% | 1026.4 hPa | 0 mm | - | 671 W/m² | - |
| 1777462216 | 11.11° C | 25% | 1026.4 hPa | 0 mm | - | 671 W/m² | - |
| 1777461916 | 10.56° C | 25% | 1026.4 hPa | 0 mm | - | 671 W/m² | - |
| 1777461616 | 9.44° C | 26% | 1026.1 hPa | 0 mm | - | 178 W/m² | - |
| 1777461316 | 10.56° C | 25% | 1026.1 hPa | 0 mm | - | 720 W/m² | - |
* Rain latest hour (hover to see other rain measurements)
** Current wind speed in m/s (hover to see current wind gust speed)